Time;durP1;ratioP1;P1;durP2;ratioP2;P2;SDS_P1;SDS_P2;PMS_P1;PMS_P2;Temp;Humidity;BMP_temperature;BMP_pressure;BME280_temperature;BME280_humidity;BME280_pressure;Samples;Min_cycle;Max_cycle;Signal;HPM_P1;HPM_P2
2022/12/07 00:04:04;;;;;;;1.88;0.73;;;17.00;60.00;;;;;;10425014;28;20138;-28
2022/12/07 00:09:11;;;;;;;1.45;0.60;;;17.00;60.00;;;;;;10426644;28;20121;-31
2022/12/07 00:14:14;;;;;;;3.72;0.90;;;17.00;60.00;;;;;;10428508;28;20175;-28
2022/12/07 00:19:18;;;;;;;2.35;0.60;;;17.00;60.10;;;;;;10436942;28;20106;-34
2022/12/07 00:24:19;;;;;;;3.90;0.50;;;16.80;59.50;;;;;;10432510;28;20049;-32
2022/12/07 00:29:23;;;;;;;1.87;0.77;;;16.20;59.70;;;;;;10422301;28;20168;-29
2022/12/07 00:34:26;;;;;;;1.92;0.43;;;16.60;61.30;;;;;;10428200;28;20132;-31
2022/12/07 00:39:28;;;;;;;2.03;0.57;;;16.50;61.60;;;;;;10437295;28;20059;-31
2022/12/07 00:44:30;;;;;;;1.07;0.47;;;16.50;61.60;;;;;;10430232;28;20053;-31
2022/12/07 00:49:33;;;;;;;2.45;0.70;;;16.20;62.60;;;;;;10431227;28;20538;-31
2022/12/07 00:54:35;;;;;;;3.40;0.55;;;16.70;60.80;;;;;;10422255;28;20045;-29
2022/12/07 00:59:37;;;;;;;1.43;0.60;;;16.80;60.20;;;;;;10422390;28;20107;-32
2022/12/07 01:04:40;;;;;;;0.57;0.30;;;16.60;60.50;;;;;;10427702;28;20091;-31
2022/12/07 01:09:42;;;;;;;1.27;0.70;;;16.20;61.60;;;;;;10435242;28;20152;-31
2022/12/07 01:14:44;;;;;;;5.32;0.95;;;16.20;59.10;;;;;;10432992;28;20088;-33
2022/12/07 01:19:47;;;;;;;1.60;0.50;;;14.00;66.20;;;;;;10431152;28;20049;-33
2022/12/07 01:24:49;;;;;;;2.05;0.60;;;15.40;66.50;;;;;;10421461;28;20049;-30
2022/12/07 01:29:52;;;;;;;6.20;1.30;;;16.40;61.50;;;;;;10425350;28;20497;-31
2022/12/07 01:34:55;;;;;;;1.30;0.30;;;15.60;60.50;;;;;;10445202;28;20088;-30
2022/12/07 01:39:57;;;;;;;1.58;0.40;;;15.50;64.50;;;;;;10445728;28;20084;-31
2022/12/07 01:45:45;;;;;;;3.20;0.60;;;15.90;63.70;;;;;;10447511;28;20098;-29
2022/12/07 01:50:51;;;;;;;2.17;0.40;;;16.00;62.00;;;;;;10427753;28;20048;-31
2022/12/07 01:55:54;;;;;;;1.25;0.32;;;13.90;71.70;;;;;;10444024;28;20044;-31
2022/12/07 02:00:55;;;;;;;2.15;0.95;;;15.60;65.40;;;;;;10456853;28;20133;-31
2022/12/07 02:06:00;;;;;;;2.07;0.40;;;16.10;62.50;;;;;;10433005;28;20049;-32
2022/12/07 02:11:03;;;;;;;1.52;0.40;;;16.40;60.90;;;;;;10441004;28;20051;-31
2022/12/07 02:16:15;;;;;;;3.13;0.60;;;16.10;62.10;;;;;;10447663;28;20481;-33
2022/12/07 02:21:28;;;;;;;1.77;0.50;;;16.40;60.40;;;;;;10442804;28;20155;-31
2022/12/07 02:27:07;;;;;;;2.75;0.50;;;16.40;60.00;;;;;;10442151;28;20490;-31
2022/12/07 02:32:16;;;;;;;3.22;0.32;;;16.00;62.10;;;;;;10441486;28;20469;-32
2022/12/07 02:37:35;;;;;;;5.78;0.80;;;16.40;60.50;;;;;;10444314;28;20053;-33
2022/12/07 02:42:43;;;;;;;1.58;0.30;;;15.90;61.70;;;;;;10435008;28;20532;-31
2022/12/07 02:47:52;;;;;;;8.93;0.70;;;16.50;59.90;;;;;;10438127;28;20618;-31
2022/12/07 02:52:54;;;;;;;5.30;0.80;;;13.50;66.20;;;;;;10439588;28;20053;-30
2022/12/07 02:58:10;;;;;;;2.38;0.75;;;14.20;68.00;;;;;;10440853;28;20049;-30
2022/12/07 03:03:16;;;;;;;3.35;0.30;;;15.40;64.90;;;;;;10441948;28;20048;-32
2022/12/07 03:08:26;;;;;;;5.78;0.40;;;16.00;59.10;;;;;;10438325;28;20037;-30
2022/12/07 03:13:34;;;;;;;3.15;0.40;;;16.10;61.50;;;;;;10444684;28;20048;-31
2022/12/07 03:18:42;;;;;;;2.03;0.40;;;16.40;60.20;;;;;;10433869;28;20402;-32
2022/12/07 03:23:49;;;;;;;1.33;0.40;;;16.10;60.80;;;;;;10447495;28;20531;-32
2022/12/07 03:28:55;;;;;;;2.22;0.50;;;14.90;64.50;;;;;;10447181;28;20053;-29
2022/12/07 03:34:03;;;;;;;4.43;0.60;;;14.90;65.40;;;;;;10457976;28;20082;-30
2022/12/07 03:39:14;;;;;;;2.97;0.50;;;14.60;68.90;;;;;;10448829;28;20052;-31
2022/12/07 03:44:17;;;;;;;3.13;0.38;;;14.40;68.70;;;;;;10449953;28;20478;-30
2022/12/07 03:49:24;;;;;;;;;;;15.60;63.40;;;;;;10449948;28;20047;-34
2022/12/07 03:54:30;;;;;;;1.50;0.50;;;16.30;60.40;;;;;;10449402;28;19929;-36
2022/12/07 03:59:33;;;;;;;4.35;0.63;;;16.40;59.80;;;;;;10452909;28;20049;-34
2022/12/07 04:04:36;;;;;;;5.25;0.63;;;15.60;59.60;;;;;;10450533;28;20037;-32
2022/12/07 04:09:38;;;;;;;2.15;0.40;;;15.30;58.70;;;;;;10445321;28;20112;-33
2022/12/07 04:14:40;;;;;;;1.30;0.50;;;15.30;64.30;;;;;;10460717;28;20754;-31
2022/12/07 04:19:43;;;;;;;1.50;0.40;;;13.70;69.00;;;;;;10457348;28;20445;-32
2022/12/07 04:24:45;;;;;;;2.72;0.52;;;15.50;61.00;;;;;;10455474;28;20111;-37
2022/12/07 04:29:47;;;;;;;1.10;0.50;;;16.00;60.50;;;;;;10440105;28;20561;-32
2022/12/07 04:34:51;;;;;;;2.30;0.40;;;16.20;60.10;;;;;;10442558;28;20049;-31
2022/12/07 04:39:53;;;;;;;2.22;0.35;;;16.30;59.50;;;;;;10433123;28;20103;-32
2022/12/07 04:44:55;;;;;;;2.42;0.50;;;16.10;59.90;;;;;;10447863;28;20067;-31
2022/12/07 04:49:58;;;;;;;3.07;0.80;;;15.80;61.80;;;;;;10437055;28;20206;-32
2022/12/07 04:54:59;;;;;;;3.05;0.70;;;15.70;56.50;;;;;;10436770;28;20136;-30
2022/12/07 05:00:01;;;;;;;3.33;0.82;;;10.90;60.60;;;;;;10447669;28;20105;-31
2022/12/07 05:05:05;;;;;;;4.27;0.40;;;12.80;76.20;;;;;;10432358;28;20120;-30
2022/12/07 05:10:08;;;;;;;4.85;0.85;;;14.00;64.20;;;;;;10439592;28;20141;-32
2022/12/07 05:15:10;;;;;;;;;;;13.80;66.60;;;;;;10440860;28;20152;-29
2022/12/07 05:20:13;;;;;;;5.93;1.20;;;14.10;57.50;;;;;;10446435;28;19966;-28
2022/12/07 05:25:15;;;;;;;6.53;1.13;;;14.10;61.70;;;;;;10444222;28;20052;-33
2022/12/07 05:30:18;;;;;;;2.27;0.83;;;12.00;68.40;;;;;;10434604;28;20071;-30
2022/12/07 05:35:21;;;;;;;17.70;1.40;;;12.70;77.00;;;;;;10430517;28;20597;-30
2022/12/07 05:40:25;;;;;;;5.90;1.17;;;11.50;75.90;;;;;;10430930;28;20045;-32
2022/12/07 05:45:26;;;;;;;8.93;0.65;;;11.90;82.40;;;;;;10426869;28;20069;-29
2022/12/07 05:50:30;;;;;;;1.80;0.60;;;13.50;71.50;;;;;;10425614;28;20478;-33
2022/12/07 05:55:32;;;;;;;2.67;0.60;;;14.70;66.10;;;;;;10426042;28;20049;-31
2022/12/07 06:00:33;;;;;;;6.80;0.60;;;14.30;69.80;;;;;;10428402;28;20501;-30
2022/12/07 06:05:37;;;;;;;3.08;0.60;;;14.30;65.50;;;;;;10440263;28;20226;-29
2022/12/07 06:10:38;;;;;;;7.65;1.00;;;14.90;64.60;;;;;;10427564;28;20075;-32
2022/12/07 06:15:41;;;;;;;1.33;0.43;;;14.20;61.40;;;;;;10430557;28;20073;-30
2022/12/07 06:20:44;;;;;;;3.78;0.68;;;14.10;69.10;;;;;;10432235;28;20497;-30
2022/12/07 06:25:46;;;;;;;7.03;0.70;;;14.20;70.10;;;;;;10444080;28;20059;-29
2022/12/07 06:30:48;;;;;;;1.10;0.40;;;13.40;59.10;;;;;;10429672;28;20048;-31
2022/12/07 06:35:51;;;;;;;3.42;0.98;;;14.20;66.20;;;;;;10444787;28;20053;-32
2022/12/07 06:40:53;;;;;;;4.53;0.43;;;13.30;71.10;;;;;;10441514;28;20490;-31
2022/12/07 06:45:55;;;;;;;0.82;0.50;;;14.90;66.40;;;;;;10446071;28;20077;-31
2022/12/07 06:50:58;;;;;;;2.20;0.77;;;15.90;62.40;;;;;;10432782;28;20131;-32
2022/12/07 06:56:00;;;;;;;0.90;0.50;;;15.50;63.70;;;;;;10432173;28;20076;-34
2022/12/07 07:01:02;;;;;;;4.13;0.63;;;15.40;63.50;;;;;;10433800;28;20106;-26
2022/12/07 07:15:31;;;;;;;7.50;0.82;;;14.70;58.70;;;;;;10539536;27;20128;-30
2022/12/07 07:20:33;;;;;;;4.28;0.98;;;14.60;63.80;;;;;;10527248;28;21005;-32
2022/12/07 07:25:35;;;;;;;3.00;0.70;;;14.60;67.50;;;;;;10511359;28;20060;-30
2022/12/07 07:30:39;;;;;;;6.43;0.95;;;13.10;72.60;;;;;;10521871;28;20040;-32
2022/12/07 07:35:40;;;;;;;4.93;0.68;;;13.90;68.00;;;;;;10522897;28;20052;-33
2022/12/07 07:40:42;;;;;;;3.30;0.83;;;15.50;61.20;;;;;;10513279;28;20139;-30
2022/12/07 07:45:46;;;;;;;3.00;0.63;;;14.80;66.10;;;;;;10526022;28;20057;-31
2022/12/07 07:50:48;;;;;;;2.53;0.70;;;16.10;61.20;;;;;;10515260;28;20428;-31
2022/12/07 07:55:53;;;;;;;3.13;0.83;;;15.90;61.80;;;;;;10521879;28;20117;-30
2022/12/07 08:00:56;;;;;;;1.77;0.63;;;16.10;61.30;;;;;;10518286;28;20066;-29
2022/12/07 08:05:58;;;;;;;1.15;0.50;;;16.10;60.70;;;;;;10491008;28;20105;-30
2022/12/07 08:11:00;;;;;;;1.43;0.40;;;15.30;64.30;;;;;;10504635;28;20535;-29
2022/12/07 08:16:06;;;;;;;0.82;0.40;;;16.30;60.40;;;;;;10500549;28;20040;-30
2022/12/07 08:21:12;;;;;;;1.42;0.40;;;16.10;60.90;;;;;;10493568;28;20387;-34
2022/12/07 08:26:17;;;;;;;3.67;0.57;;;15.70;61.90;;;;;;10470655;28;20757;-28
2022/12/07 08:31:20;;;;;;;1.30;0.43;;;15.00;65.00;;;;;;10475176;28;20140;-28
2022/12/07 08:36:22;;;;;;;2.10;0.60;;;15.90;62.20;;;;;;10468239;28;20108;-34
2022/12/07 08:41:24;;;;;;;1.85;0.88;;;16.00;61.40;;;;;;10465820;28;20054;-31
2022/12/07 08:46:32;;;;;;;4.93;0.77;;;15.90;61.20;;;;;;10475202;28;20524;-29
2022/12/07 08:51:35;;;;;;;2.75;0.75;;;16.20;60.70;;;;;;10468106;28;20056;-31
2022/12/07 08:56:37;;;;;;;3.05;1.00;;;16.00;57.70;;;;;;10472105;28;20053;-29
2022/12/07 09:01:40;;;;;;;5.65;1.20;;;16.00;61.70;;;;;;10474883;28;20048;-27
2022/12/07 09:06:42;;;;;;;3.85;1.15;;;14.10;70.20;;;;;;10465895;28;20084;-31
2022/12/07 09:11:45;;;;;;;3.30;0.50;;;15.20;64.50;;;;;;10472079;28;20500;-30
2022/12/07 09:16:48;;;;;;;2.50;0.70;;;15.90;61.90;;;;;;10492280;28;20143;-33
2022/12/07 09:21:51;;;;;;;3.72;0.90;;;16.20;60.40;;;;;;10488433;28;20059;-34
2022/12/07 09:26:52;;;;;;;3.00;0.50;;;16.50;59.80;;;;;;10495924;28;20045;-36
2022/12/07 09:31:56;;;;;;;0.77;0.60;;;16.30;60.20;;;;;;10492979;28;20141;-30
2022/12/07 09:36:57;;;;;;;5.93;0.65;;;16.50;59.50;;;;;;10491033;28;20382;-30
2022/12/07 09:42:00;;;;;;;2.90;0.50;;;16.60;59.40;;;;;;10502355;28;20485;-31
2022/12/07 09:47:04;;;;;;;8.07;0.52;;;16.50;60.00;;;;;;10483454;28;20041;-34
2022/12/07 09:52:21;;;;;;;2.45;0.30;;;16.40;59.70;;;;;;10488819;28;20115;-34
2022/12/07 09:57:29;;;;;;;0.65;0.30;;;16.30;60.80;;;;;;10490006;28;20076;-35
2022/12/07 10:02:37;;;;;;;1.95;0.43;;;16.10;59.90;;;;;;10474107;28;20049;-36
2022/12/07 10:07:39;;;;;;;4.80;1.17;;;16.60;59.50;;;;;;10489482;28;20072;-38
2022/12/07 10:12:55;;;;;;;4.07;0.77;;;15.60;56.90;;;;;;10490215;28;20125;-30
2022/12/07 10:18:00;;;;;;;2.78;0.60;;;16.00;61.50;;;;;;10476251;28;20825;-33
2022/12/07 10:23:04;;;;;;;2.80;0.40;;;16.20;60.20;;;;;;10477155;28;20497;-30
2022/12/07 10:28:15;;;;;;;3.65;0.50;;;15.60;61.20;;;;;;10480737;28;20135;-30
2022/12/07 10:33:31;;;;;;;1.73;0.50;;;15.90;59.60;;;;;;10481569;28;20127;-32
2022/12/07 10:38:33;;;;;;;1.95;0.68;;;16.00;60.70;;;;;;10481265;28;20153;-35
2022/12/07 10:43:35;;;;;;;1.50;0.50;;;15.20;62.70;;;;;;10491563;28;20084;-30
2022/12/07 10:48:48;;;;;;;4.43;0.68;;;15.60;62.90;;;;;;10484333;28;20129;-31
2022/12/07 10:54:01;;;;;;;0.77;0.35;;;15.00;63.10;;;;;;10487617;28;20574;-29
2022/12/07 10:59:19;;;;;;;3.45;0.45;;;16.10;60.20;;;;;;10487222;28;20426;-30
2022/12/07 11:04:30;;;;;;;1.25;0.60;;;15.90;61.30;;;;;;10482195;28;20048;-35
2022/12/07 11:09:53;;;;;;;4.78;1.05;;;14.70;60.90;;;;;;10490981;28;20080;-30
2022/12/07 11:15:01;;;;;;;6.07;1.83;;;11.70;73.90;;;;;;10483104;28;20095;-41
2022/12/07 11:20:18;;;;;;;6.75;1.20;;;12.50;60.80;;;;;;10463664;28;20073;-33
2022/12/07 11:25:30;;;;;;;1.45;0.55;;;14.30;69.40;;;;;;10477020;28;20056;-32
2022/12/07 11:30:38;;;;;;;6.47;0.80;;;14.50;68.80;;;;;;10488789;28;20036;-32
2022/12/07 11:35:54;;;;;;;2.67;0.47;;;16.30;60.90;;;;;;10481302;28;20064;-35
2022/12/07 11:41:12;;;;;;;2.42;0.57;;;16.20;59.90;;;;;;10471121;28;20148;-30
2022/12/07 11:46:17;;;;;;;9.55;0.73;;;15.90;60.60;;;;;;10472813;28;20048;-29
2022/12/07 11:51:23;;;;;;;3.88;0.85;;;12.60;69.30;;;;;;10482719;28;20068;-32
2022/12/07 11:56:28;;;;;;;3.65;1.08;;;12.80;69.90;;;;;;10476641;28;20473;-30
2022/12/07 12:01:46;;;;;;;3.47;0.95;;;15.60;65.30;;;;;;10476628;28;20127;-29
2022/12/07 12:06:50;;;;;;;1.48;0.63;;;14.60;62.40;;;;;;10490604;28;20072;-32
2022/12/07 12:12:13;;;;;;;5.95;0.80;;;13.00;77.40;;;;;;10496586;28;20143;-29
2022/12/07 12:17:38;;;;;;;2.55;0.65;;;15.70;64.80;;;;;;10497255;28;20091;-32
2022/12/07 12:22:45;;;;;;;2.13;0.60;;;16.10;59.50;;;;;;10493621;28;20045;-29
2022/12/07 12:27:49;;;;;;;1.10;0.47;;;15.90;61.50;;;;;;10483950;28;20131;-30
2022/12/07 12:32:51;;;;;;;1.80;0.28;;;16.80;60.80;;;;;;10483269;28;20052;-32
2022/12/07 12:37:56;;;;;;;1.92;0.38;;;17.30;59.40;;;;;;10477015;28;20064;-30
2022/12/07 12:42:58;;;;;;;6.65;0.55;;;17.40;59.40;;;;;;10485056;28;20080;-30
2022/12/07 12:48:00;;;;;;;5.72;0.70;;;15.80;57.10;;;;;;10488176;28;20048;-30
2022/12/07 12:53:16;;;;;;;2.72;0.30;;;13.90;62.70;;;;;;10505856;28;20063;-31
2022/12/07 12:58:36;;;;;;;1.63;0.50;;;16.70;61.90;;;;;;10498048;28;20140;-30
2022/12/07 13:03:37;;;;;;;0.65;0.20;;;17.40;59.30;;;;;;10480159;28;20045;-31
2022/12/07 13:08:43;;;;;;;4.50;0.45;;;17.50;58.10;;;;;;10462453;28;20044;-30
2022/12/07 13:13:44;;;;;;;3.50;0.43;;;17.50;58.20;;;;;;10463237;28;21932;-30
2022/12/07 13:18:46;;;;;;;2.17;0.60;;;17.40;58.50;;;;;;10466129;28;20048;-32
2022/12/07 13:23:56;;;;;;;1.03;0.57;;;16.40;62.60;;;;;;10482707;28;20056;-32
2022/12/07 13:29:11;;;;;;;0.85;0.40;;;16.00;52.30;;;;;;10481273;28;20144;-30
2022/12/07 13:34:31;;;;;;;5.47;0.63;;;17.20;59.00;;;;;;10489657;28;20052;-28
2022/12/07 13:39:44;;;;;;;1.27;0.25;;;17.40;58.30;;;;;;10480797;28;20040;-30
2022/12/07 13:44:46;;;;;;;1.45;0.50;;;17.70;57.70;;;;;;10485456;28;20144;-30
2022/12/07 13:49:51;;;;;;;1.97;0.63;;;17.00;60.00;;;;;;10487642;28;20159;-34
2022/12/07 13:55:00;;;;;;;4.60;0.80;;;17.60;57.70;;;;;;10477940;28;20444;-31
2022/12/07 14:00:02;;;;;;;2.30;0.75;;;17.50;57.90;;;;;;10500779;28;20102;-30
2022/12/07 14:05:10;;;;;;;1.60;0.40;;;12.20;75.80;;;;;;10490264;28;20092;-32
2022/12/07 14:10:28;;;;;;;1.83;0.30;;;15.40;69.10;;;;;;10463929;28;20125;-31
2022/12/07 14:15:31;;;;;;;1.05;0.30;;;17.20;59.50;;;;;;10457648;28;20073;-30
2022/12/07 14:20:36;;;;;;;4.72;0.57;;;17.50;58.20;;;;;;10466310;28;20125;-32
2022/12/07 14:25:48;;;;;;;2.15;0.90;;;17.60;57.70;;;;;;10465053;28;20098;-29
2022/12/07 14:30:50;;;;;;;3.92;0.50;;;17.60;57.80;;;;;;10467497;28;20139;-31
2022/12/07 14:35:54;;;;;;;2.38;0.40;;;17.20;57.90;;;;;;10464111;28;20052;-31
2022/12/07 14:41:50;;;;;;;1.65;0.60;;;17.70;57.20;;;;;;10465691;28;20040;-31
2022/12/07 14:46:21;;;;;;;3.47;1.70;;;17.80;56.90;;;;;;10467546;28;20162;-31
2022/12/07 14:51:23;;;;;;;3.97;1.23;;;17.80;56.70;;;;;;10466893;28;20045;-36
2022/12/07 14:56:27;;;;;;;0.40;0.20;;;17.60;57.10;;;;;;10469626;28;20085;-38
2022/12/07 15:01:29;;;;;;;2.03;0.63;;;17.20;57.90;;;;;;10463996;28;20037;-36
2022/12/07 15:06:31;;;;;;;3.30;0.98;;;17.30;58.00;;;;;;10465417;28;20048;-31
2022/12/07 15:11:34;;;;;;;8.13;1.13;;;17.70;56.90;;;;;;10469492;28;20075;-30
2022/12/07 15:16:37;;;;;;;5.30;0.80;;;15.80;62.00;;;;;;10464526;28;20048;-32
2022/12/07 15:21:39;;;;;;;1.40;0.50;;;17.20;58.70;;;;;;10491877;28;20447;-30
2022/12/07 15:26:42;;;;;;;5.37;0.97;;;17.30;58.10;;;;;;10489849;28;20053;-34
2022/12/07 15:31:45;;;;;;;3.45;1.20;;;16.10;53.80;;;;;;10484566;28;20914;-30
2022/12/07 15:36:47;;;;;;;;;;;15.80;62.40;;;;;;10468171;28;20618;-32
2022/12/07 15:41:50;;;;;;;8.48;0.75;;;15.80;59.40;;;;;;10466538;28;19967;-27
2022/12/07 15:46:52;;;;;;;3.67;0.80;;;17.10;56.90;;;;;;10466106;28;20052;-26
2022/12/07 15:51:54;;;;;;;1.83;0.60;;;17.20;58.30;;;;;;10473510;28;20474;-31
2022/12/07 15:56:57;;;;;;;1.70;0.60;;;17.80;56.50;;;;;;10490612;28;21034;-31
2022/12/07 16:01:59;;;;;;;3.58;0.70;;;17.70;56.50;;;;;;10491368;28;20048;-29
2022/12/07 16:07:01;;;;;;;1.88;0.52;;;17.60;55.80;;;;;;10481535;28;20400;-29
2022/12/07 16:12:05;;;;;;;2.50;0.50;;;17.00;58.20;;;;;;10475043;28;20495;-30
2022/12/07 16:17:08;;;;;;;1.77;0.75;;;14.70;66.40;;;;;;10483072;28;20084;-31
2022/12/07 16:22:10;;;;;;;2.97;0.70;;;16.90;57.80;;;;;;10493381;28;20068;-29
2022/12/07 16:27:13;;;;;;;1.50;0.37;;;17.50;57.60;;;;;;10499151;28;20079;-31
2022/12/07 16:32:15;;;;;;;3.83;0.65;;;17.70;56.50;;;;;;10497887;28;20048;-30
2022/12/07 16:37:17;;;;;;;1.58;0.50;;;17.90;56.20;;;;;;10485966;28;20052;-30
2022/12/07 16:42:20;;;;;;;1.13;0.53;;;17.90;56.50;;;;;;10491164;28;20131;-30
2022/12/07 16:47:22;;;;;;;1.80;0.60;;;17.90;55.80;;;;;;10497054;28;20052;-31
2022/12/07 16:52:24;;;;;;;2.15;0.80;;;17.90;55.70;;;;;;10494562;28;20067;-30
2022/12/07 16:57:27;;;;;;;2.50;0.50;;;18.00;55.70;;;;;;10479693;28;20135;-30
2022/12/07 17:02:29;;;;;;;7.50;0.98;;;18.00;55.60;;;;;;10490854;28;20056;-33
2022/12/07 17:07:31;;;;;;;5.23;1.00;;;15.80;62.10;;;;;;10487974;28;20076;-38
2022/12/07 17:12:34;;;;;;;6.13;1.33;;;15.60;62.60;;;;;;10486471;28;20713;-33
2022/12/07 17:17:36;;;;;;;2.72;0.60;;;15.00;66.60;;;;;;10479003;28;20068;-30
2022/12/07 17:22:37;;;;;;;2.25;0.80;;;16.10;59.50;;;;;;10495898;28;20127;-31
2022/12/07 17:27:41;;;;;;;7.33;2.13;;;14.10;59.30;;;;;;10480589;28;20572;-29
2022/12/07 17:32:43;;;;;;;8.25;3.63;;;14.30;73.30;;;;;;10488350;28;20076;-30
2022/12/07 17:37:45;;;;;;;13.77;4.67;;;12.20;71.40;;;;;;10497297;28;20052;-30
2022/12/07 17:42:50;;;;;;;6.23;3.13;;;13.40;78.40;;;;;;10505249;28;20406;-31
2022/12/07 17:47:52;;;;;;;6.13;1.23;;;15.10;67.80;;;;;;10487654;28;20110;-31
2022/12/07 17:58:11;;;;;;;2.65;1.15;;;13.60;72.00;;;;;;10487042;28;20679;-35
2022/12/07 18:03:13;;;;;;;2.80;1.50;;;14.50;63.30;;;;;;10481494;28;20127;-33
2022/12/07 18:08:15;;;;;;;12.57;5.37;;;15.70;65.40;;;;;;10493259;28;20044;-32
2022/12/07 18:13:37;;;;;;;18.92;6.80;;;16.50;61.80;;;;;;10482587;28;20056;-29
2022/12/07 18:18:39;;;;;;;10.68;5.30;;;14.80;69.90;;;;;;10491472;28;20057;-32
2022/12/07 18:23:41;;;;;;;13.90;6.18;;;15.60;65.10;;;;;;10487311;28;20098;-32
2022/12/07 18:28:45;;;;;;;12.40;4.97;;;15.70;66.50;;;;;;10480751;28;20079;-32
2022/12/07 18:33:48;;;;;;;11.60;4.95;;;14.50;66.60;;;;;;10470133;28;20503;-30
2022/12/07 18:38:50;;;;;;;8.90;2.33;;;13.50;80.50;;;;;;10480060;28;20060;-31
2022/12/07 18:43:53;;;;;;;10.27;5.57;;;14.80;58.00;;;;;;10487429;28;20379;-33
2022/12/07 18:48:55;;;;;;;13.00;6.18;;;16.40;63.70;;;;;;10483358;28;20052;-34
2022/12/07 18:53:59;;;;;;;11.48;6.07;;;17.10;60.70;;;;;;10489600;28;20048;-33
2022/12/07 19:04:24;;;;;;;10.75;5.60;;;17.20;60.00;;;;;;10483045;28;20044;-33
2022/12/07 19:09:26;;;;;;;8.37;4.57;;;17.40;59.50;;;;;;10497886;28;20045;-31
2022/12/07 19:14:32;;;;;;;10.02;2.70;;;17.60;59.10;;;;;;10486257;28;20512;-33
2022/12/07 19:19:36;;;;;;;3.90;2.15;;;17.80;58.60;;;;;;10488168;28;20049;-31
2022/12/07 19:24:38;;;;;;;3.30;1.05;;;17.90;58.50;;;;;;10492326;28;20065;-33
2022/12/07 19:29:42;;;;;;;2.78;1.40;;;14.30;60.10;;;;;;10478387;28;20052;-35
2022/12/07 19:34:46;;;;;;;3.22;1.63;;;17.60;60.10;;;;;;10475481;28;20053;-36
2022/12/07 19:39:50;;;;;;;2.35;1.17;;;16.70;59.40;;;;;;10490725;28;20114;-31
2022/12/07 19:44:53;;;;;;;3.00;1.27;;;17.50;60.50;;;;;;10483547;28;20056;-32
2022/12/07 19:49:55;;;;;;;2.42;1.35;;;17.90;58.90;;;;;;10475967;28;20074;-34
2022/12/07 19:54:57;;;;;;;4.88;1.40;;;18.00;58.60;;;;;;10484575;28;20049;-31
2022/12/07 20:00:00;;;;;;;1.92;0.90;;;18.10;58.40;;;;;;10476314;28;20459;-32
2022/12/07 20:05:02;;;;;;;2.05;1.00;;;18.20;58.20;;;;;;10482730;28;20051;-34
2022/12/07 20:10:05;;;;;;;1.70;0.73;;;18.20;58.10;;;;;;10492621;28;20131;-32
2022/12/07 20:15:09;;;;;;;3.13;0.98;;;18.20;58.00;;;;;;10484955;28;20055;-32
2022/12/07 20:20:12;;;;;;;3.45;1.00;;;18.30;58.00;;;;;;10489109;28;20476;-31
2022/12/07 20:25:16;;;;;;;;;;;18.20;57.80;;;;;;10480375;28;20049;-36
2022/12/07 20:30:19;;;;;;;5.75;0.90;;;15.50;66.30;;;;;;10487373;28;20376;-35
2022/12/07 20:35:21;;;;;;;2.58;1.05;;;14.40;69.10;;;;;;10484890;28;20060;-34
2022/12/07 20:40:23;;;;;;;2.75;1.00;;;10.70;94.10;;;;;;10482734;28;20041;-35
2022/12/07 20:45:26;;;;;;;3.90;0.80;;;11.50;85.80;;;;;;10474869;28;20049;-36
2022/12/07 20:50:28;;;;;;;;;;;9.10;97.70;;;;;;10489219;28;20138;-34
2022/12/07 20:55:30;;;;;;;6.57;1.52;;;12.70;92.30;;;;;;10465761;28;19939;-33
2022/12/07 21:00:35;;;;;;;3.10;1.37;;;15.60;68.10;;;;;;10498591;28;20040;-31
2022/12/07 21:05:37;;;;;;;2.72;0.80;;;14.20;81.00;;;;;;10501866;28;20094;-34
2022/12/07 21:10:39;;;;;;;3.77;1.00;;;16.90;63.00;;;;;;10485674;28;20075;-32
2022/12/07 21:15:42;;;;;;;3.28;1.08;;;17.60;59.60;;;;;;10490258;28;20660;-31
2022/12/07 21:20:44;;;;;;;1.83;0.80;;;17.70;58.80;;;;;;10490605;28;20790;-35
2022/12/07 21:25:46;;;;;;;3.17;1.48;;;17.90;58.20;;;;;;10487408;28;20760;-31
2022/12/07 21:30:49;;;;;;;2.63;0.80;;;18.00;57.70;;;;;;10486358;28;20048;-34
2022/12/07 21:35:51;;;;;;;3.65;0.95;;;18.00;57.40;;;;;;10484984;28;20060;-32
2022/12/07 21:40:53;;;;;;;2.08;0.75;;;18.10;57.30;;;;;;10495420;28;20075;-31
2022/12/07 21:45:56;;;;;;;3.90;0.80;;;18.00;57.30;;;;;;10479915;28;20102;-33
2022/12/07 21:51:04;;;;;;;3.58;0.70;;;18.10;57.20;;;;;;10463038;28;20072;-32
2022/12/07 21:56:14;;;;;;;4.10;0.80;;;18.00;57.20;;;;;;10471966;28;20072;-34
2022/12/07 22:01:19;;;;;;;6.50;0.90;;;18.00;57.10;;;;;;10460531;28;20119;-32
2022/12/07 22:06:22;;;;;;;5.57;1.42;;;17.90;57.10;;;;;;10468132;28;20045;-35
2022/12/07 22:11:24;;;;;;;7.65;1.73;;;17.90;57.00;;;;;;10457852;28;20049;-36
2022/12/07 22:16:28;;;;;;;9.52;1.17;;;18.00;56.90;;;;;;10462476;28;20103;-31
2022/12/07 22:21:31;;;;;;;4.82;1.60;;;18.00;57.40;;;;;;10473564;28;20639;-32
2022/12/07 22:26:33;;;;;;;3.67;0.50;;;18.00;56.70;;;;;;10477695;28;20217;-30
2022/12/07 22:31:39;;;;;;;2.63;1.13;;;17.90;56.70;;;;;;10454700;28;20057;-32
2022/12/07 22:36:41;;;;;;;3.97;1.10;;;17.90;56.70;;;;;;10474955;28;20060;-32
2022/12/07 22:41:43;;;;;;;3.13;0.77;;;17.70;57.10;;;;;;10470603;28;20099;-32
2022/12/07 22:46:46;;;;;;;2.33;0.63;;;17.60;57.00;;;;;;10453331;28;20132;-33
2022/12/07 22:51:48;;;;;;;4.15;1.00;;;17.90;56.60;;;;;;10470420;28;20105;-31
2022/12/07 22:56:50;;;;;;;7.57;0.82;;;17.90;56.40;;;;;;10484723;28;20053;-32
2022/12/07 23:01:53;;;;;;;1.70;0.60;;;17.90;56.40;;;;;;10477190;28;20094;-34
2022/12/07 23:06:57;;;;;;;2.95;0.65;;;17.90;56.40;;;;;;10489683;28;20127;-33
2022/12/07 23:17:20;;;;;;;2.20;0.82;;;17.80;56.20;;;;;;10479019;28;20529;-32
2022/12/07 23:22:22;;;;;;;1.35;0.50;;;17.90;56.20;;;;;;10484349;28;20092;-34
2022/12/07 23:27:24;;;;;;;5.70;0.53;;;17.70;55.60;;;;;;10479213;28;20064;-33
2022/12/07 23:32:27;;;;;;;2.25;0.50;;;17.70;56.30;;;;;;10484891;28;20054;-30
2022/12/07 23:37:29;;;;;;;1.83;0.50;;;17.60;56.20;;;;;;10478159;28;20560;-30
2022/12/07 23:42:32;;;;;;;3.42;0.77;;;17.50;56.30;;;;;;10463003;28;20052;-31
2022/12/07 23:47:35;;;;;;;4.60;0.80;;;16.70;58.70;;;;;;10499666;28;20044;-32
2022/12/07 23:52:37;;;;;;;4.57;1.20;;;15.40;59.50;;;;;;10489757;28;20094;-32
2022/12/07 23:57:39;;;;;;;2.20;0.50;;;15.80;63.10;;;;;;10488075;28;20079;-30
